Terminal Aerodrome Forecast
Issued by NWS

Home | Current Version | Previous Version | Text Only | Print | Product List | Glossary Off
Versions: 1 2 3 4 5 6 7 8 9 10 11 12 13 14 15 16 17 18 19

000
FTUS43 KTOP 281400 AAA
TAFFOE
TAF AMD
KFOE 281408Z 2814/0112 12009KT 1SM -SN BKN013
      TEMPO 2814/2818 1/2SM SN BKN007
     FM010000 13005KT 5SM BR OVC023=

USA.gov is the U.S. government's official web portal to all federal, state and local government web resources and services.